sensor_id;sensor_type;location;lat;lon;timestamp;pressure;altitude;pressure_sealevel;temperature;humidity
64053;BME280;50299;49.524;8.536;2022-11-21T00:00:41;99614.50;;;3.67;74.20
64053;BME280;50299;49.524;8.536;2022-11-21T00:03:09;99601.75;;;3.76;72.50
64053;BME280;50299;49.524;8.536;2022-11-21T00:05:39;99598.38;;;3.52;74.08
64053;BME280;50299;49.524;8.536;2022-11-21T00:08:10;99602.66;;;3.58;73.43
64053;BME280;50299;49.524;8.536;2022-11-21T00:10:38;99605.69;;;3.84;75.73
64053;BME280;50299;49.524;8.536;2022-11-21T00:13:05;99598.91;;;3.54;73.40
64053;BME280;50299;49.524;8.536;2022-11-21T00:15:32;99603.75;;;3.10;75.57
64053;BME280;50299;49.524;8.536;2022-11-21T00:18:02;99601.16;;;3.19;74.68
64053;BME280;50299;49.524;8.536;2022-11-21T00:20:29;99601.88;;;2.59;75.88
64053;BME280;50299;49.524;8.536;2022-11-21T00:22:55;99601.56;;;2.42;78.38
64053;BME280;50299;49.524;8.536;2022-11-21T00:25:22;99604.72;;;2.68;78.01
64053;BME280;50299;49.524;8.536;2022-11-21T00:27:48;99597.88;;;2.52;80.18
64053;BME280;50299;49.524;8.536;2022-11-21T00:30:16;99610.31;;;2.58;78.50
64053;BME280;50299;49.524;8.536;2022-11-21T00:32:42;99613.88;;;2.39;78.43
64053;BME280;50299;49.524;8.536;2022-11-21T00:35:08;99614.53;;;2.50;78.17
64053;BME280;50299;49.524;8.536;2022-11-21T00:37:35;99611.28;;;2.29;79.82
64053;BME280;50299;49.524;8.536;2022-11-21T00:40:01;99616.09;;;2.18;79.92
64053;BME280;50299;49.524;8.536;2022-11-21T00:42:28;99619.31;;;2.20;81.63
64053;BME280;50299;49.524;8.536;2022-11-21T00:44:54;99611.78;;;2.12;80.76
64053;BME280;50299;49.524;8.536;2022-11-21T00:47:20;99615.06;;;2.14;81.78
64053;BME280;50299;49.524;8.536;2022-11-21T00:49:47;99595.03;;;2.00;80.90
64053;BME280;50299;49.524;8.536;2022-11-21T00:52:13;99606.47;;;2.02;82.58
64053;BME280;50299;49.524;8.536;2022-11-21T00:54:41;99604.78;;;2.25;81.08
64053;BME280;50299;49.524;8.536;2022-11-21T00:57:07;99598.53;;;2.06;81.11
64053;BME280;50299;49.524;8.536;2022-11-21T00:59:33;99600.25;;;1.97;81.83
64053;BME280;50299;49.524;8.536;2022-11-21T01:02:00;99592.78;;;2.07;80.62
64053;BME280;50299;49.524;8.536;2022-11-21T01:04:30;99592.50;;;2.28;80.62
64053;BME280;50299;49.524;8.536;2022-11-21T01:06:57;99592.72;;;2.31;80.24
64053;BME280;50299;49.524;8.536;2022-11-21T01:09:23;99583.66;;;2.55;80.05
64053;BME280;50299;49.524;8.536;2022-11-21T01:11:50;99583.06;;;2.39;78.68
64053;BME280;50299;49.524;8.536;2022-11-21T01:14:18;99575.09;;;2.24;79.48
64053;BME280;50299;49.524;8.536;2022-11-21T01:16:45;99570.16;;;2.44;79.92
64053;BME280;50299;49.524;8.536;2022-11-21T01:19:11;99572.66;;;2.41;79.53
64053;BME280;50299;49.524;8.536;2022-11-21T01:21:38;99569.78;;;2.32;79.63
64053;BME280;50299;49.524;8.536;2022-11-21T01:24:04;99574.81;;;2.25;78.97
64053;BME280;50299;49.524;8.536;2022-11-21T01:26:30;99571.34;;;2.38;78.95
64053;BME280;50299;49.524;8.536;2022-11-21T01:28:58;99568.78;;;2.47;79.40
64053;BME280;50299;49.524;8.536;2022-11-21T01:31:26;99561.63;;;2.51;78.97
64053;BME280;50299;49.524;8.536;2022-11-21T01:33:55;99557.28;;;2.31;79.27
64053;BME280;50299;49.524;8.536;2022-11-21T01:36:24;99555.88;;;2.15;79.97
64053;BME280;50299;49.524;8.536;2022-11-21T01:38:52;99562.72;;;2.12;80.74
64053;BME280;50299;49.524;8.536;2022-11-21T01:41:31;99555.63;;;2.11;81.54
64053;BME280;50299;49.524;8.536;2022-11-21T01:44:05;99564.03;;;2.53;82.37
64053;BME280;50299;49.524;8.536;2022-11-21T01:46:35;99570.50;;;2.38;79.45
64053;BME280;50299;49.524;8.536;2022-11-21T01:49:17;99575.16;;;2.37;80.87
64053;BME280;50299;49.524;8.536;2022-11-21T01:51:53;99573.78;;;2.40;81.61
64053;BME280;50299;49.524;8.536;2022-11-21T01:54:40;99576.41;;;2.64;80.96
64053;BME280;50299;49.524;8.536;2022-11-21T01:59:54;99559.63;;;2.89;78.94
64053;BME280;50299;49.524;8.536;2022-11-21T02:02:27;99557.38;;;2.91;77.14
64053;BME280;50299;49.524;8.536;2022-11-21T02:04:54;99563.38;;;3.26;76.03
64053;BME280;50299;49.524;8.536;2022-11-21T02:07:25;99563.31;;;3.12;78.15
64053;BME280;50299;49.524;8.536;2022-11-21T02:09:55;99563.28;;;2.99;77.55
64053;BME280;50299;49.524;8.536;2022-11-21T02:12:33;99564.06;;;3.32;81.30
64053;BME280;50299;49.524;8.536;2022-11-21T02:15:00;99559.25;;;3.10;75.51
64053;BME280;50299;49.524;8.536;2022-11-21T02:17:30;99563.84;;;2.95;76.60
64053;BME280;50299;49.524;8.536;2022-11-21T02:19:59;99560.19;;;2.86;76.46
64053;BME280;50299;49.524;8.536;2022-11-21T02:25:37;99550.03;;;3.06;77.98
64053;BME280;50299;49.524;8.536;2022-11-21T02:28:05;99548.34;;;3.10;77.66
64053;BME280;50299;49.524;8.536;2022-11-21T02:30:35;99546.59;;;3.00;76.38
64053;BME280;50299;49.524;8.536;2022-11-21T02:33:02;99543.47;;;3.07;79.03
64053;BME280;50299;49.524;8.536;2022-11-21T02:35:29;99553.16;;;2.99;77.48
64053;BME280;50299;49.524;8.536;2022-11-21T02:37:58;99541.09;;;2.86;76.56
64053;BME280;50299;49.524;8.536;2022-11-21T02:40:28;99538.00;;;2.60;76.90
64053;BME280;50299;49.524;8.536;2022-11-21T02:45:39;99536.25;;;2.51;78.75
64053;BME280;50299;49.524;8.536;2022-11-21T02:48:06;99541.72;;;2.32;78.63
64053;BME280;50299;49.524;8.536;2022-11-21T02:50:34;99550.47;;;2.48;79.92
64053;BME280;50299;49.524;8.536;2022-11-21T02:53:02;99551.88;;;2.45;78.36
64053;BME280;50299;49.524;8.536;2022-11-21T02:55:29;99549.00;;;2.55;78.78
64053;BME280;50299;49.524;8.536;2022-11-21T02:57:55;99551.44;;;2.19;78.48
64053;BME280;50299;49.524;8.536;2022-11-21T03:00:37;99547.16;;;2.13;79.72
64053;BME280;50299;49.524;8.536;2022-11-21T03:03:04;99548.34;;;2.26;79.68
64053;BME280;50299;49.524;8.536;2022-11-21T03:05:30;99547.22;;;2.45;77.80
64053;BME280;50299;49.524;8.536;2022-11-21T03:07:57;99544.06;;;2.38;81.83
64053;BME280;50299;49.524;8.536;2022-11-21T03:10:23;99541.16;;;2.67;81.31
64053;BME280;50299;49.524;8.536;2022-11-21T03:12:50;99540.22;;;2.39;77.43
64053;BME280;50299;49.524;8.536;2022-11-21T03:15:16;99539.47;;;2.85;80.98
64053;BME280;50299;49.524;8.536;2022-11-21T03:17:42;99537.28;;;3.34;83.75
64053;BME280;50299;49.524;8.536;2022-11-21T03:20:13;99531.00;;;3.33;78.46
64053;BME280;50299;49.524;8.536;2022-11-21T03:22:39;99534.63;;;3.42;74.19
64053;BME280;50299;49.524;8.536;2022-11-21T03:25:05;99540.00;;;3.34;76.67
64053;BME280;50299;49.524;8.536;2022-11-21T03:27:32;99530.88;;;3.52;79.10
64053;BME280;50299;49.524;8.536;2022-11-21T03:29:58;99535.53;;;3.65;76.46
64053;BME280;50299;49.524;8.536;2022-11-21T03:32:24;99535.81;;;3.78;77.43
64053;BME280;50299;49.524;8.536;2022-11-21T03:34:51;99537.66;;;3.68;82.24
64053;BME280;50299;49.524;8.536;2022-11-21T03:37:18;99540.50;;;3.50;77.77
64053;BME280;50299;49.524;8.536;2022-11-21T03:39:45;99535.75;;;3.55;79.04
64053;BME280;50299;49.524;8.536;2022-11-21T03:42:11;99538.56;;;3.64;75.54
64053;BME280;50299;49.524;8.536;2022-11-21T03:44:38;99541.09;;;3.88;76.84
64053;BME280;50299;49.524;8.536;2022-11-21T03:47:04;99544.63;;;3.88;72.80
64053;BME280;50299;49.524;8.536;2022-11-21T03:49:30;99545.25;;;3.72;73.10
64053;BME280;50299;49.524;8.536;2022-11-21T03:51:57;99543.63;;;3.57;75.06
64053;BME280;50299;49.524;8.536;2022-11-21T03:54:23;99537.38;;;3.70;73.46
64053;BME280;50299;49.524;8.536;2022-11-21T03:56:49;99530.78;;;3.30;74.86
64053;BME280;50299;49.524;8.536;2022-11-21T03:59:16;99531.94;;;3.24;75.57
64053;BME280;50299;49.524;8.536;2022-11-21T04:01:42;99539.81;;;2.98;74.99
64053;BME280;50299;49.524;8.536;2022-11-21T04:04:09;99544.56;;;2.59;76.21
64053;BME280;50299;49.524;8.536;2022-11-21T04:06:35;99542.91;;;2.58;76.46
64053;BME280;50299;49.524;8.536;2022-11-21T04:09:02;99529.50;;;2.62;79.09
64053;BME280;50299;49.524;8.536;2022-11-21T04:11:28;99527.66;;;2.57;75.60
64053;BME280;50299;49.524;8.536;2022-11-21T04:13:54;99529.59;;;2.38;75.89
64053;BME280;50299;49.524;8.536;2022-11-21T04:16:21;99540.47;;;2.43;75.37
64053;BME280;50299;49.524;8.536;2022-11-21T04:18:47;99529.28;;;2.58;77.05
64053;BME280;50299;49.524;8.536;2022-11-21T04:21:13;99526.84;;;2.89;78.85
64053;BME280;50299;49.524;8.536;2022-11-21T04:23:40;99527.28;;;3.24;79.52
64053;BME280;50299;49.524;8.536;2022-11-21T04:26:06;99528.88;;;3.30;75.67
64053;BME280;50299;49.524;8.536;2022-11-21T04:28:33;99529.97;;;3.29;76.08
64053;BME280;50299;49.524;8.536;2022-11-21T04:31:04;99524.44;;;3.02;72.89
64053;BME280;50299;49.524;8.536;2022-11-21T04:33:36;99532.44;;;2.65;76.56
64053;BME280;50299;49.524;8.536;2022-11-21T04:36:03;99527.13;;;3.21;79.46
64053;BME280;50299;49.524;8.536;2022-11-21T04:38:29;99530.91;;;2.92;73.73
64053;BME280;50299;49.524;8.536;2022-11-21T04:40:55;99534.63;;;2.82;76.50
64053;BME280;50299;49.524;8.536;2022-11-21T04:43:22;99521.81;;;2.97;73.24
64053;BME280;50299;49.524;8.536;2022-11-21T04:45:48;99533.34;;;2.61;72.90
64053;BME280;50299;49.524;8.536;2022-11-21T04:48:14;99534.00;;;2.72;75.59
64053;BME280;50299;49.524;8.536;2022-11-21T04:50:41;99532.16;;;2.67;73.66
64053;BME280;50299;49.524;8.536;2022-11-21T04:53:07;99530.97;;;2.87;75.08
64053;BME280;50299;49.524;8.536;2022-11-21T04:55:33;99536.38;;;2.92;76.22
64053;BME280;50299;49.524;8.536;2022-11-21T04:58:00;99521.28;;;2.94;75.63
64053;BME280;50299;49.524;8.536;2022-11-21T05:00:26;99527.59;;;3.23;71.92
64053;BME280;50299;49.524;8.536;2022-11-21T05:02:53;99524.66;;;3.19;73.23
64053;BME280;50299;49.524;8.536;2022-11-21T05:05:19;99528.16;;;3.25;76.40
64053;BME280;50299;49.524;8.536;2022-11-21T05:07:48;99529.91;;;3.02;69.93
64053;BME280;50299;49.524;8.536;2022-11-21T05:10:14;99525.09;;;3.12;71.29
64053;BME280;50299;49.524;8.536;2022-11-21T05:12:41;99525.81;;;2.72;70.76
64053;BME280;50299;49.524;8.536;2022-11-21T05:15:26;99519.34;;;2.49;73.84
64053;BME280;50299;49.524;8.536;2022-11-21T05:17:52;99527.56;;;2.62;72.99
64053;BME280;50299;49.524;8.536;2022-11-21T05:20:19;99525.41;;;2.78;72.37
64053;BME280;50299;49.524;8.536;2022-11-21T05:22:50;99528.81;;;2.70;72.88
64053;BME280;50299;49.524;8.536;2022-11-21T05:25:16;99528.66;;;2.80;71.29
64053;BME280;50299;49.524;8.536;2022-11-21T05:27:43;99521.63;;;2.41;74.23
64053;BME280;50299;49.524;8.536;2022-11-21T05:30:10;99523.13;;;2.66;74.51
64053;BME280;50299;49.524;8.536;2022-11-21T05:32:36;99514.47;;;2.64;75.61
64053;BME280;50299;49.524;8.536;2022-11-21T05:35:03;99510.22;;;2.39;74.97
64053;BME280;50299;49.524;8.536;2022-11-21T05:37:29;99508.84;;;2.23;75.27
64053;BME280;50299;49.524;8.536;2022-11-21T05:39:56;99516.13;;;2.28;75.97
64053;BME280;50299;49.524;8.536;2022-11-21T05:42:22;99506.63;;;2.25;76.02
64053;BME280;50299;49.524;8.536;2022-11-21T05:45:09;99498.19;;;1.89;79.34
64053;BME280;50299;49.524;8.536;2022-11-21T05:47:35;99512.88;;;1.69;83.15
64053;BME280;50299;49.524;8.536;2022-11-21T05:50:02;99523.38;;;1.81;82.37
64053;BME280;50299;49.524;8.536;2022-11-21T05:52:28;99533.75;;;1.98;87.69
64053;BME280;50299;49.524;8.536;2022-11-21T05:54:54;99526.75;;;2.10;81.70
64053;BME280;50299;49.524;8.536;2022-11-21T05:57:21;99532.41;;;2.52;78.40
64053;BME280;50299;49.524;8.536;2022-11-21T05:59:47;99524.09;;;2.76;76.73
64053;BME280;50299;49.524;8.536;2022-11-21T06:02:13;99531.50;;;2.89;75.61
64053;BME280;50299;49.524;8.536;2022-11-21T06:04:58;99527.22;;;2.83;75.44
64053;BME280;50299;49.524;8.536;2022-11-21T06:07:24;99527.28;;;3.10;72.93
64053;BME280;50299;49.524;8.536;2022-11-21T06:09:51;99530.03;;;3.24;72.76
64053;BME280;50299;49.524;8.536;2022-11-21T06:12:17;99534.13;;;3.27;74.58
64053;BME280;50299;49.524;8.536;2022-11-21T06:14:50;99534.78;;;3.18;75.38
64053;BME280;50299;49.524;8.536;2022-11-21T06:17:17;99541.25;;;3.23;71.87
64053;BME280;50299;49.524;8.536;2022-11-21T06:19:43;99539.75;;;3.16;70.25
64053;BME280;50299;49.524;8.536;2022-11-21T06:22:10;99538.19;;;2.97;71.49
64053;BME280;50299;49.524;8.536;2022-11-21T06:24:36;99545.91;;;3.08;75.21
64053;BME280;50299;49.524;8.536;2022-11-21T06:27:02;99544.56;;;3.38;69.49
64053;BME280;50299;49.524;8.536;2022-11-21T06:29:29;99550.59;;;3.22;73.13
64053;BME280;50299;49.524;8.536;2022-11-21T06:31:55;99555.38;;;3.43;70.57
64053;BME280;50299;49.524;8.536;2022-11-21T06:34:21;99543.63;;;3.43;71.45
64053;BME280;50299;49.524;8.536;2022-11-21T06:36:48;99535.53;;;2.91;70.78
64053;BME280;50299;49.524;8.536;2022-11-21T06:39:15;99549.09;;;3.29;76.86
64053;BME280;50299;49.524;8.536;2022-11-21T06:41:42;99533.94;;;2.90;71.11
64053;BME280;50299;49.524;8.536;2022-11-21T06:44:08;99542.63;;;2.92;72.47
64053;BME280;50299;49.524;8.536;2022-11-21T06:46:34;99548.34;;;2.77;73.87
64053;BME280;50299;49.524;8.536;2022-11-21T06:49:01;99541.25;;;3.09;71.67
64053;BME280;50299;49.524;8.536;2022-11-21T06:51:30;99542.28;;;3.13;71.58
64053;BME280;50299;49.524;8.536;2022-11-21T06:53:57;99544.72;;;2.49;70.99
64053;BME280;50299;49.524;8.536;2022-11-21T06:56:25;99544.16;;;2.99;72.93
64053;BME280;50299;49.524;8.536;2022-11-21T06:58:55;99546.66;;;2.81;71.07
64053;BME280;50299;49.524;8.536;2022-11-21T07:01:22;99538.22;;;3.10;68.89
64053;BME280;50299;49.524;8.536;2022-11-21T07:03:49;99538.88;;;2.88;68.95
64053;BME280;50299;49.524;8.536;2022-11-21T07:06:15;99550.38;;;3.18;69.69
64053;BME280;50299;49.524;8.536;2022-11-21T07:08:41;99537.63;;;3.13;69.30
64053;BME280;50299;49.524;8.536;2022-11-21T07:11:13;99540.16;;;3.24;72.66
64053;BME280;50299;49.524;8.536;2022-11-21T07:13:55;99533.44;;;3.02;72.02
64053;BME280;50299;49.524;8.536;2022-11-21T07:16:21;99541.06;;;3.19;69.95
64053;BME280;50299;49.524;8.536;2022-11-21T07:18:51;99543.13;;;2.62;69.63
64053;BME280;50299;49.524;8.536;2022-11-21T07:21:17;99549.41;;;2.95;69.58
64053;BME280;50299;49.524;8.536;2022-11-21T07:23:43;99548.34;;;3.10;69.08
64053;BME280;50299;49.524;8.536;2022-11-21T07:26:10;99557.66;;;3.09;73.82
64053;BME280;50299;49.524;8.536;2022-11-21T07:28:39;99556.31;;;3.20;71.57
64053;BME280;50299;49.524;8.536;2022-11-21T07:31:05;99552.03;;;3.47;70.87
64053;BME280;50299;49.524;8.536;2022-11-21T07:33:38;99554.28;;;2.98;67.38
64053;BME280;50299;49.524;8.536;2022-11-21T07:36:04;99554.47;;;3.02;69.44
64053;BME280;50299;49.524;8.536;2022-11-21T07:38:31;99560.41;;;2.90;68.74
64053;BME280;50299;49.524;8.536;2022-11-21T07:40:57;99554.28;;;3.12;70.32
64053;BME280;50299;49.524;8.536;2022-11-21T07:43:24;99566.22;;;3.02;68.31
64053;BME280;50299;49.524;8.536;2022-11-21T07:45:50;99566.09;;;2.42;69.04
64053;BME280;50299;49.524;8.536;2022-11-21T07:48:16;99574.78;;;2.95;71.89
64053;BME280;50299;49.524;8.536;2022-11-21T07:50:44;99579.91;;;2.51;69.16
64053;BME280;50299;49.524;8.536;2022-11-21T07:53:10;99580.47;;;2.99;69.71
64053;BME280;50299;49.524;8.536;2022-11-21T07:55:37;99574.53;;;2.78;70.50
64053;BME280;50299;49.524;8.536;2022-11-21T07:58:11;99580.44;;;2.66;68.88
64053;BME280;50299;49.524;8.536;2022-11-21T08:00:39;99580.03;;;2.59;69.74
64053;BME280;50299;49.524;8.536;2022-11-21T08:03:07;99571.78;;;2.27;69.83
64053;BME280;50299;49.524;8.536;2022-11-21T08:05:38;99576.59;;;2.86;69.47
64053;BME280;50299;49.524;8.536;2022-11-21T08:08:05;99567.22;;;3.06;67.90
64053;BME280;50299;49.524;8.536;2022-11-21T08:10:35;99569.47;;;3.04;69.55
64053;BME280;50299;49.524;8.536;2022-11-21T08:13:02;99575.34;;;2.79;67.02
64053;BME280;50299;49.524;8.536;2022-11-21T08:15:28;99579.88;;;2.13;69.00
64053;BME280;50299;49.524;8.536;2022-11-21T08:17:55;99587.94;;;2.23;69.92
64053;BME280;50299;49.524;8.536;2022-11-21T08:20:21;99573.09;;;2.48;69.45
64053;BME280;50299;49.524;8.536;2022-11-21T08:22:47;99576.56;;;2.54;69.32
64053;BME280;50299;49.524;8.536;2022-11-21T08:25:14;99573.41;;;2.47;67.91
64053;BME280;50299;49.524;8.536;2022-11-21T08:27:40;99576.22;;;2.23;68.36
64053;BME280;50299;49.524;8.536;2022-11-21T08:30:09;99579.72;;;2.61;67.54
64053;BME280;50299;49.524;8.536;2022-11-21T08:32:36;99581.59;;;2.47;67.63
64053;BME280;50299;49.524;8.536;2022-11-21T08:35:02;99583.75;;;2.82;68.66
64053;BME280;50299;49.524;8.536;2022-11-21T08:37:29;99583.59;;;3.39;68.38
64053;BME280;50299;49.524;8.536;2022-11-21T08:39:56;99580.06;;;3.38;65.06
64053;BME280;50299;49.524;8.536;2022-11-21T08:42:24;99574.00;;;3.69;67.22
64053;BME280;50299;49.524;8.536;2022-11-21T08:44:53;99571.16;;;3.88;63.88
64053;BME280;50299;49.524;8.536;2022-11-21T08:47:20;99568.63;;;3.36;62.98
64053;BME280;50299;49.524;8.536;2022-11-21T08:49:47;99563.16;;;3.04;63.79
64053;BME280;50299;49.524;8.536;2022-11-21T08:52:14;99568.41;;;2.86;64.31
64053;BME280;50299;49.524;8.536;2022-11-21T08:54:45;99561.41;;;2.80;64.91
64053;BME280;50299;49.524;8.536;2022-11-21T08:57:12;99567.00;;;3.35;66.73
64053;BME280;50299;49.524;8.536;2022-11-21T08:59:38;99567.25;;;3.20;62.92
64053;BME280;50299;49.524;8.536;2022-11-21T09:02:04;99558.22;;;3.25;63.84
64053;BME280;50299;49.524;8.536;2022-11-21T09:04:31;99549.22;;;3.38;63.73
64053;BME280;50299;49.524;8.536;2022-11-21T09:06:58;99553.94;;;3.32;65.94
64053;BME280;50299;49.524;8.536;2022-11-21T09:09:24;99554.91;;;3.09;63.55
64053;BME280;50299;49.524;8.536;2022-11-21T09:11:51;99561.84;;;3.48;67.01
64053;BME280;50299;49.524;8.536;2022-11-21T09:14:17;99552.22;;;3.78;62.70
64053;BME280;50299;49.524;8.536;2022-11-21T09:17:02;99556.69;;;3.46;63.37
64053;BME280;50299;49.524;8.536;2022-11-21T09:19:47;99549.63;;;2.99;63.28
64053;BME280;50299;49.524;8.536;2022-11-21T09:22:14;99553.88;;;3.51;65.26
64053;BME280;50299;49.524;8.536;2022-11-21T09:24:40;99552.38;;;4.09;64.79
64053;BME280;50299;49.524;8.536;2022-11-21T09:27:07;99549.53;;;4.73;59.81
64053;BME280;50299;49.524;8.536;2022-11-21T09:29:36;99540.75;;;4.84;61.35
64053;BME280;50299;49.524;8.536;2022-11-21T09:32:02;99539.41;;;4.73;58.38
64053;BME280;50299;49.524;8.536;2022-11-21T09:34:29;99532.44;;;5.21;67.16
64053;BME280;50299;49.524;8.536;2022-11-21T09:36:57;99536.53;;;5.32;56.90
64053;BME280;50299;49.524;8.536;2022-11-21T09:39:23;99541.91;;;4.83;55.89
64053;BME280;50299;49.524;8.536;2022-11-21T09:44:53;99534.53;;;4.48;58.85
64053;BME280;50299;49.524;8.536;2022-11-21T09:49:57;99519.13;;;3.79;58.44
64053;BME280;50299;49.524;8.536;2022-11-21T09:52:31;99526.88;;;4.00;57.11
64053;BME280;50299;49.524;8.536;2022-11-21T09:57:48;99526.56;;;4.60;57.77
64053;BME280;50299;49.524;8.536;2022-11-21T10:00:19;99519.53;;;4.67;57.14
64053;BME280;50299;49.524;8.536;2022-11-21T10:02:47;99517.25;;;5.14;68.93
64053;BME280;50299;49.524;8.536;2022-11-21T10:05:14;99508.66;;;5.38;55.74
64053;BME280;50299;49.524;8.536;2022-11-21T10:07:41;99501.81;;;5.19;57.66
64053;BME280;50299;49.524;8.536;2022-11-21T10:10:22;99502.44;;;5.15;56.76
64053;BME280;50299;49.524;8.536;2022-11-21T10:18:30;99479.78;;;5.32;56.41
64053;BME280;50299;49.524;8.536;2022-11-21T10:26:59;99480.22;;;5.26;55.43
64053;BME280;50299;49.524;8.536;2022-11-21T10:29:47;99477.59;;;5.52;57.08
64053;BME280;50299;49.524;8.536;2022-11-21T10:34:50;99474.47;;;5.36;55.17
64053;BME280;50299;49.524;8.536;2022-11-21T10:37:31;99466.81;;;5.73;56.49
64053;BME280;50299;49.524;8.536;2022-11-21T10:42:52;99463.69;;;5.39;57.92
64053;BME280;50299;49.524;8.536;2022-11-21T10:45:20;99458.16;;;4.91;55.16
64053;BME280;50299;49.524;8.536;2022-11-21T10:47:50;99448.13;;;5.17;55.62
64053;BME280;50299;49.524;8.536;2022-11-21T10:53:20;99439.19;;;4.95;57.03
64053;BME280;50299;49.524;8.536;2022-11-21T10:56:14;99429.81;;;5.35;56.11
64053;BME280;50299;49.524;8.536;2022-11-21T10:58:46;99427.78;;;5.93;53.89
64053;BME280;50299;49.524;8.536;2022-11-21T11:01:33;99425.19;;;6.14;53.93
64053;BME280;50299;49.524;8.536;2022-11-21T11:06:56;99415.09;;;6.79;54.07
64053;BME280;50299;49.524;8.536;2022-11-21T11:09:32;99402.34;;;6.65;55.35
64053;BME280;50299;49.524;8.536;2022-11-21T11:12:23;99412.00;;;6.80;52.13
64053;BME280;50299;49.524;8.536;2022-11-21T11:14:53;99408.91;;;6.18;55.57
64053;BME280;50299;49.524;8.536;2022-11-21T11:17:28;99394.84;;;6.19;53.72
64053;BME280;50299;49.524;8.536;2022-11-21T11:23:16;99382.78;;;7.05;56.93
64053;BME280;50299;49.524;8.536;2022-11-21T11:25:56;99374.16;;;6.39;52.06
64053;BME280;50299;49.524;8.536;2022-11-21T11:28:33;99366.66;;;6.57;52.81
64053;BME280;50299;49.524;8.536;2022-11-21T11:31:06;99355.03;;;6.98;53.02
64053;BME280;50299;49.524;8.536;2022-11-21T11:33:37;99349.63;;;7.10;55.67
64053;BME280;50299;49.524;8.536;2022-11-21T11:36:09;99350.66;;;7.48;50.76
64053;BME280;50299;49.524;8.536;2022-11-21T11:38:36;99343.41;;;7.43;54.83
64053;BME280;50299;49.524;8.536;2022-11-21T11:41:11;99334.06;;;7.65;55.19
64053;BME280;50299;49.524;8.536;2022-11-21T11:43:59;99333.00;;;8.11;47.57
64053;BME280;50299;49.524;8.536;2022-11-21T11:47:05;99321.66;;;8.25;47.65
64053;BME280;50299;49.524;8.536;2022-11-21T11:50:09;99313.44;;;7.92;47.91
64053;BME280;50299;49.524;8.536;2022-11-21T11:52:49;99313.94;;;7.02;47.57
64053;BME280;50299;49.524;8.536;2022-11-21T11:55:20;99309.09;;;6.99;48.72
64053;BME280;50299;49.524;8.536;2022-11-21T11:57:49;99308.31;;;6.98;49.91
64053;BME280;50299;49.524;8.536;2022-11-21T12:00:31;99303.66;;;6.60;51.00
64053;BME280;50299;49.524;8.536;2022-11-21T12:03:10;99302.41;;;6.87;49.59
64053;BME280;50299;49.524;8.536;2022-11-21T12:05:54;99299.47;;;6.93;50.40
64053;BME280;50299;49.524;8.536;2022-11-21T12:08:32;99301.72;;;6.90;55.46
64053;BME280;50299;49.524;8.536;2022-11-21T12:11:14;99289.84;;;6.48;53.58
64053;BME280;50299;49.524;8.536;2022-11-21T12:14:15;99286.66;;;6.20;51.64
64053;BME280;50299;49.524;8.536;2022-11-21T12:17:04;99284.88;;;6.42;53.23
64053;BME280;50299;49.524;8.536;2022-11-21T12:19:35;99281.06;;;6.25;51.89
64053;BME280;50299;49.524;8.536;2022-11-21T12:22:03;99264.56;;;6.34;53.98
64053;BME280;50299;49.524;8.536;2022-11-21T12:24:33;99274.28;;;6.23;54.53
64053;BME280;50299;49.524;8.536;2022-11-21T12:27:27;99265.00;;;6.36;51.85
64053;BME280;50299;49.524;8.536;2022-11-21T12:33:02;99261.78;;;5.78;58.65
64053;BME280;50299;49.524;8.536;2022-11-21T12:35:53;99260.31;;;6.36;54.47
64053;BME280;50299;49.524;8.536;2022-11-21T12:44:37;99247.66;;;6.53;53.22
64053;BME280;50299;49.524;8.536;2022-11-21T12:47:12;99242.25;;;6.35;55.08
64053;BME280;50299;49.524;8.536;2022-11-21T12:49:57;99226.47;;;6.24;54.16
64053;BME280;50299;49.524;8.536;2022-11-21T12:52:54;99226.63;;;5.63;55.68
64053;BME280;50299;49.524;8.536;2022-11-21T12:55:41;99220.34;;;6.18;55.33
64053;BME280;50299;49.524;8.536;2022-11-21T12:58:25;99212.78;;;6.74;54.37
64053;BME280;50299;49.524;8.536;2022-11-21T13:01:14;99208.31;;;6.02;53.07
64053;BME280;50299;49.524;8.536;2022-11-21T13:04:02;99203.22;;;6.21;52.31
64053;BME280;50299;49.524;8.536;2022-11-21T13:06:39;99192.81;;;6.65;53.37
64053;BME280;50299;49.524;8.536;2022-11-21T13:09:11;99196.69;;;6.05;51.82
64053;BME280;50299;49.524;8.536;2022-11-21T13:11:45;99186.63;;;6.18;50.94
64053;BME280;50299;49.524;8.536;2022-11-21T13:14:28;99176.22;;;6.32;51.89
64053;BME280;50299;49.524;8.536;2022-11-21T13:19:47;99166.72;;;6.80;52.87
64053;BME280;50299;49.524;8.536;2022-11-21T13:25:33;99151.28;;;7.08;54.91
64053;BME280;50299;49.524;8.536;2022-11-21T13:30:55;99154.72;;;6.63;51.44
64053;BME280;50299;49.524;8.536;2022-11-21T13:36:04;99152.69;;;6.52;54.16
64053;BME280;50299;49.524;8.536;2022-11-21T14:01:21;99099.25;;;8.19;49.50
64053;BME280;50299;49.524;8.536;2022-11-21T14:09:18;99080.59;;;6.97;50.59
64053;BME280;50299;49.524;8.536;2022-11-21T14:11:51;99079.47;;;7.43;51.17
64053;BME280;50299;49.524;8.536;2022-11-21T14:14:30;99068.84;;;6.75;53.89
64053;BME280;50299;49.524;8.536;2022-11-21T14:17:12;99073.75;;;6.49;52.16
64053;BME280;50299;49.524;8.536;2022-11-21T14:19:43;99076.75;;;6.35;53.71
64053;BME280;50299;49.524;8.536;2022-11-21T14:22:15;99072.13;;;6.69;53.96
64053;BME280;50299;49.524;8.536;2022-11-21T14:24:44;99062.66;;;6.78;56.98
64053;BME280;50299;49.524;8.536;2022-11-21T14:27:18;99054.50;;;7.03;61.10
64053;BME280;50299;49.524;8.536;2022-11-21T14:29:50;99065.44;;;7.11;61.08
64053;BME280;50299;49.524;8.536;2022-11-21T14:32:16;99066.88;;;6.97;53.69
64053;BME280;50299;49.524;8.536;2022-11-21T14:34:42;99067.13;;;6.71;53.58
64053;BME280;50299;49.524;8.536;2022-11-21T14:37:11;99062.75;;;6.28;54.99
64053;BME280;50299;49.524;8.536;2022-11-21T14:39:44;99055.53;;;6.23;55.26
64053;BME280;50299;49.524;8.536;2022-11-21T14:42:21;99055.28;;;6.07;56.54
64053;BME280;50299;49.524;8.536;2022-11-21T14:45:22;99054.53;;;6.28;60.90
64053;BME280;50299;49.524;8.536;2022-11-21T14:47:52;99044.94;;;6.13;56.12
64053;BME280;50299;49.524;8.536;2022-11-21T14:50:33;99033.25;;;6.25;60.17
64053;BME280;50299;49.524;8.536;2022-11-21T14:53:00;99021.56;;;6.07;57.82
64053;BME280;50299;49.524;8.536;2022-11-21T14:55:30;99017.88;;;6.03;56.84
64053;BME280;50299;49.524;8.536;2022-11-21T14:57:59;99018.63;;;6.12;64.44